Time,TemperatureF,DewpointF,PressureIn,WindDirection,WindDirectionDegrees,WindSpeedMPH,WindSpeedGustMPH,Humidity,HourlyPrecipIn,Conditions,Clouds,dailyrainin,SoftwareType,DateUTC
2013-10-31 00:04:00,15.6,11.0,30.18,WNW,288,0.0,2.0,83,0.00,,,0.00,weatherlink.com 1.10,2013-10-31 06:04:00,
2013-10-31 00:19:00,15.2,11.0,30.19,NE,56,0.0,2.0,84,0.00,,,0.00,weatherlink.com 1.10,2013-10-31 06:19:00,
2013-10-31 00:34:00,14.7,11.0,30.19,NNW,335,0.0,0.0,85,0.00,,,0.00,weatherlink.com 1.10,2013-10-31 06:34:00,
2013-10-31 00:49:00,14.6,11.0,30.19,WNW,300,0.0,2.0,85,0.00,,,0.00,weatherlink.com 1.10,2013-10-31 06:49:00,
2013-10-31 01:04:00,15.1,11.0,30.20,NNW,340,0.0,5.0,85,0.00,,,0.00,weatherlink.com 1.10,2013-10-31 07:04:00,
2013-10-31 01:19:00,15.0,11.0,30.20,WNW,302,0.0,3.0,84,0.00,,,0.00,weatherlink.com 1.10,2013-10-31 07:19:00,
2013-10-31 01:34:00,13.4,10.0,30.21,East,94,1.0,3.0,85,0.00,,,0.00,weatherlink.com 1.10,2013-10-31 07:34:00,
2013-10-31 01:49:00,12.2,8.0,30.23,SSE,160,0.0,1.0,84,0.00,,,0.00,weatherlink.com 1.10,2013-10-31 07:49:00,
2013-10-31 02:04:00,11.6,9.0,30.22,SSW,212,0.0,0.0,88,0.00,,,0.00,weatherlink.com 1.10,2013-10-31 08:04:00,
2013-10-31 02:20:00,12.4,9.0,30.23,WNW,302,0.0,1.0,86,0.00,,,0.00,weatherlink.com 1.10,2013-10-31 08:20:00,
2013-10-31 02:34:00,12.2,9.0,30.24,WNW,302,0.0,1.0,88,0.00,,,0.00,weatherlink.com 1.10,2013-10-31 08:34:00,
2013-10-31 02:49:00,12.1,9.0,30.25,NW,309,0.0,0.0,88,0.00,,,0.00,weatherlink.com 1.10,2013-10-31 08:49:00,
2013-10-31 03:04:00,11.0,8.0,30.25,WNW,294,0.0,0.0,86,0.00,,,0.00,weatherlink.com 1.10,2013-10-31 09:04:00,
2013-10-31 03:19:00,10.7,8.0,30.25,NW,315,0.0,0.0,88,0.00,,,0.00,weatherlink.com 1.10,2013-10-31 09:19:00,
2013-10-31 03:35:00,10.0,7.0,30.26,West,281,0.0,0.0,89,0.00,,,0.00,weatherlink.com 1.10,2013-10-31 09:35:00,
2013-10-31 03:50:00,9.3,7.0,30.26,West,281,1.0,1.0,89,0.00,,,0.00,weatherlink.com 1.10,2013-10-31 09:50:00,
2013-10-31 04:05:00,9.5,7.0,30.26,NW,305,0.0,2.0,89,0.00,,,0.00,weatherlink.com 1.10,2013-10-31 10:05:00,
2013-10-31 04:21:00,9.6,7.0,30.27,West,281,0.0,0.0,90,0.00,,,0.00,weatherlink.com 1.10,2013-10-31 10:21:00,
2013-10-31 04:35:00,9.3,7.0,30.26,WNW,296,0.0,0.0,90,0.00,,,0.00,weatherlink.com 1.10,2013-10-31 10:35:00,
2013-10-31 04:50:00,9.5,7.0,30.27,WNW,297,0.0,0.0,90,0.00,,,0.00,weatherlink.com 1.10,2013-10-31 10:50:00,
2013-10-31 05:05:00,8.1,5.0,30.28,WNW,297,0.0,0.0,88,0.00,,,0.00,weatherlink.com 1.10,2013-10-31 11:05:00,
2013-10-31 05:20:00,7.9,6.0,30.28,NW,305,0.0,2.0,90,0.00,,,0.00,weatherlink.com 1.10,2013-10-31 11:20:00,
2013-10-31 05:35:00,8.0,6.0,30.29,NW,311,0.0,2.0,91,0.00,,,0.00,weatherlink.com 1.10,2013-10-31 11:35:00,
2013-10-31 05:50:00,8.0,6.0,30.30,NW,319,3.0,3.0,90,0.00,,,0.00,weatherlink.com 1.10,2013-10-31 11:50:00,
2013-10-31 06:05:00,7.1,5.0,30.30,NW,324,0.0,2.0,89,0.00,,,0.00,weatherlink.com 1.10,2013-10-31 12:05:00,
2013-10-31 06:20:00,6.5,4.0,30.32,NW,321,0.0,0.0,88,0.00,,,0.00,weatherlink.com 1.10,2013-10-31 12:20:00,
2013-10-31 06:35:00,6.6,4.0,30.32,SW,228,0.0,1.0,89,0.00,,,0.00,weatherlink.com 1.10,2013-10-31 12:35:00,
2013-10-31 06:50:00,6.0,4.0,30.33,ESE,107,0.0,0.0,89,0.00,,,0.00,weatherlink.com 1.10,2013-10-31 12:50:00,
2013-10-31 07:05:00,7.4,5.0,30.34,West,281,0.0,0.0,91,0.00,,,0.00,weatherlink.com 1.10,2013-10-31 13:05:00,
2013-10-31 07:20:00,7.7,5.0,30.35,West,281,0.0,0.0,89,0.00,,,0.00,weatherlink.com 1.10,2013-10-31 13:20:00,
2013-10-31 07:35:00,6.9,4.0,30.35,WNW,302,0.0,1.0,87,0.00,,,0.00,weatherlink.com 1.10,2013-10-31 13:35:00,
2013-10-31 07:50:00,7.8,5.0,30.36,NNE,13,1.0,2.0,89,0.00,,,0.00,weatherlink.com 1.10,2013-10-31 13:50:00,
2013-10-31 08:05:00,9.4,7.0,30.37,NW,319,0.0,1.0,89,0.00,,,0.00,weatherlink.com 1.10,2013-10-31 14:05:00,
2013-10-31 08:20:00,10.8,7.0,30.38,WNW,294,0.0,3.0,86,0.00,,,0.00,weatherlink.com 1.10,2013-10-31 14:20:00,
2013-10-31 08:35:00,12.2,9.0,30.38,WNW,288,0.0,0.0,87,0.00,,,0.00,weatherlink.com 1.10,2013-10-31 14:35:00,
2013-10-31 08:50:00,13.7,10.0,30.39,NNW,346,0.0,0.0,86,0.00,,,0.00,weatherlink.com 1.10,2013-10-31 14:50:00,
2013-10-31 09:05:00,16.0,11.0,30.38,NNW,342,1.0,2.0,81,0.00,,,0.00,weatherlink.com 1.10,2013-10-31 15:05:00,
2013-10-31 09:20:00,16.7,12.0,30.38,ENE,61,3.0,5.0,80,0.00,,,0.00,weatherlink.com 1.10,2013-10-31 15:20:00,
2013-10-31 09:35:00,17.8,12.0,30.38,NNW,328,1.0,5.0,77,0.00,,,0.00,weatherlink.com 1.10,2013-10-31 15:35:00,
2013-10-31 09:51:00,18.9,12.0,30.38,West,266,0.0,1.0,75,0.00,,,0.00,weatherlink.com 1.10,2013-10-31 15:51:00,
2013-10-31 10:06:00,24.3,15.0,30.38,West,274,0.0,0.0,68,0.00,,,0.00,weatherlink.com 1.10,2013-10-31 16:06:00,
2013-10-31 10:21:00,25.4,15.0,30.37,NE,53,0.0,0.0,66,0.00,,,0.00,weatherlink.com 1.10,2013-10-31 16:21:00,
2013-10-31 10:36:00,29.4,18.0,30.35,NE,54,0.0,0.0,62,0.00,,,0.00,weatherlink.com 1.10,2013-10-31 16:36:00,
2013-10-31 10:51:00,30.2,17.0,30.34,North,11,0.0,0.0,58,0.00,,,0.00,weatherlink.com 1.10,2013-10-31 16:51:00,
2013-10-31 11:06:00,31.3,18.0,30.33,SSW,194,3.0,3.0,58,0.01,,,0.01,weatherlink.com 1.10,2013-10-31 17:06:00,
2013-10-31 11:21:00,30.1,20.0,30.32,SSE,158,1.0,4.0,65,0.01,,,0.01,weatherlink.com 1.10,2013-10-31 17:21:00,
2013-10-31 11:36:00,31.0,19.0,30.31,SE,129,1.0,4.0,61,0.02,,,0.02,weatherlink.com 1.10,2013-10-31 17:36:00,
2013-10-31 12:06:00,33.5,18.0,30.30,East,86,0.0,1.0,54,0.01,,,0.02,weatherlink.com 1.10,2013-10-31 18:06:00,
2013-10-31 12:21:00,35.9,18.0,30.29,East,101,0.0,0.0,48,0.01,,,0.02,weatherlink.com 1.10,2013-10-31 18:21:00,
2013-10-31 12:36:00,34.8,18.0,30.28,SE,144,0.0,0.0,51,0.01,,,0.03,weatherlink.com 1.10,2013-10-31 18:36:00,
2013-10-31 12:51:00,35.1,18.0,30.27,East,82,0.0,2.0,51,0.03,,,0.05,weatherlink.com 1.10,2013-10-31 18:51:00,
2013-10-31 13:06:00,36.6,17.0,30.26,East,101,0.0,2.0,45,0.04,,,0.06,weatherlink.com 1.10,2013-10-31 19:06:00,
2013-10-31 13:21:00,36.7,20.0,30.24,WNW,288,3.0,4.0,51,0.06,,,0.08,weatherlink.com 1.10,2013-10-31 19:21:00,
2013-10-31 13:36:00,37.1,19.0,30.23,NW,307,1.0,7.0,48,0.05,,,0.08,weatherlink.com 1.10,2013-10-31 19:36:00,
2013-10-31 13:51:00,38.0,21.0,30.22,NNE,12,6.0,11.0,50,0.04,,,0.09,weatherlink.com 1.10,2013-10-31 19:51:00,
2013-10-31 14:07:00,37.9,21.0,30.21,NW,325,7.0,11.0,50,0.03,,,0.09,weatherlink.com 1.10,2013-10-31 20:07:00,
2013-10-31 14:21:00,38.3,20.0,30.21,NNW,327,5.0,8.0,49,0.02,,,0.10,weatherlink.com 1.10,2013-10-31 20:21:00,
2013-10-31 14:36:00,39.0,21.0,30.20,NNW,338,5.0,13.0,49,0.02,,,0.10,weatherlink.com 1.10,2013-10-31 20:36:00,
2013-10-31 14:51:00,38.7,22.0,30.21,NW,321,9.0,15.0,51,0.01,,,0.10,weatherlink.com 1.10,2013-10-31 20:51:00,
2013-10-31 15:06:00,38.3,21.0,30.20,NNW,336,11.0,15.0,51,0.02,,,0.11,weatherlink.com 1.10,2013-10-31 21:06:00,
2013-10-31 15:21:00,37.6,21.0,30.21,NNW,338,9.0,18.0,52,0.01,,,0.11,weatherlink.com 1.10,2013-10-31 21:21:00,
2013-10-31 15:36:00,37.5,21.0,30.21,NW,325,11.0,20.0,52,0.01,,,0.11,weatherlink.com 1.10,2013-10-31 21:36:00,
2013-10-31 15:51:00,37.1,23.0,30.22,NNW,335,8.0,16.0,56,0.01,,,0.11,weatherlink.com 1.10,2013-10-31 21:51:00,
2013-10-31 16:21:00,36.0,22.0,30.22,WNW,302,7.0,19.0,56,0.00,,,0.11,weatherlink.com 1.10,2013-10-31 22:21:00,
2013-10-31 16:36:00,35.7,21.0,30.23,NNW,330,13.0,16.0,56,0.00,,,0.11,weatherlink.com 1.10,2013-10-31 22:36:00,
2013-10-31 16:51:00,35.3,21.0,30.23,NNW,346,15.0,18.0,56,0.00,,,0.11,weatherlink.com 1.10,2013-10-31 22:51:00,
2013-10-31 17:06:00,34.7,21.0,30.23,NW,322,11.0,20.0,57,0.00,,,0.11,weatherlink.com 1.10,2013-10-31 23:06:00,
2013-10-31 17:21:00,33.6,20.0,30.23,NW,319,11.0,19.0,58,0.00,,,0.11,weatherlink.com 1.10,2013-10-31 23:21:00,
2013-10-31 17:36:00,31.8,20.0,30.23,NW,324,7.0,15.0,62,0.00,,,0.11,weatherlink.com 1.10,2013-10-31 23:36:00,
2013-10-31 17:51:00,30.6,20.0,30.24,NW,313,7.0,14.0,64,0.00,,,0.11,weatherlink.com 1.10,2013-10-31 23:51:00,
2013-10-31 18:06:00,29.2,20.0,30.24,WNW,285,5.0,9.0,68,0.00,,,0.11,weatherlink.com 1.10,2013-11-01 00:06:00,
2013-10-31 18:21:00,29.4,19.0,30.25,NW,310,7.0,13.0,66,0.00,,,0.11,weatherlink.com 1.10,2013-11-01 00:21:00,
2013-10-31 18:36:00,27.9,19.0,30.25,WNW,302,4.0,7.0,69,0.00,,,0.11,weatherlink.com 1.10,2013-11-01 00:36:00,
2013-10-31 18:51:00,27.2,19.0,30.25,WNW,294,2.0,8.0,70,0.00,,,0.11,weatherlink.com 1.10,2013-11-01 00:51:00,
2013-10-31 19:06:00,27.0,18.0,30.26,West,269,3.0,9.0,70,0.00,,,0.11,weatherlink.com 1.10,2013-11-01 01:06:00,
2013-10-31 19:21:00,26.6,18.0,30.26,West,278,5.0,9.0,71,0.00,,,0.11,weatherlink.com 1.10,2013-11-01 01:21:00,
2013-10-31 19:36:00,26.9,18.0,30.27,WNW,290,3.0,8.0,70,0.00,,,0.11,weatherlink.com 1.10,2013-11-01 01:36:00,
2013-10-31 19:51:00,26.9,18.0,30.27,WNW,297,8.0,10.0,70,0.00,,,0.11,weatherlink.com 1.10,2013-11-01 01:51:00,
2013-10-31 20:06:00,28.0,18.0,30.26,North,356,9.0,17.0,66,0.00,,,0.11,weatherlink.com 1.10,2013-11-01 02:06:00,
2013-10-31 20:21:00,27.9,18.0,30.27,NW,310,5.0,18.0,66,0.00,,,0.11,weatherlink.com 1.10,2013-11-01 02:21:00,
2013-10-31 20:37:00,27.6,18.0,30.28,NW,312,10.0,13.0,66,0.00,,,0.11,weatherlink.com 1.10,2013-11-01 02:37:00,
2013-10-31 20:52:00,26.7,17.0,30.28,NW,324,5.0,13.0,68,0.00,,,0.11,weatherlink.com 1.10,2013-11-01 02:52:00,
2013-10-31 21:07:00,27.4,17.0,30.29,West,277,4.0,14.0,66,0.00,,,0.11,weatherlink.com 1.10,2013-11-01 03:07:00,
2013-10-31 21:22:00,24.7,17.0,30.29,NW,319,5.0,8.0,71,0.00,,,0.11,weatherlink.com 1.10,2013-11-01 03:22:00,
2013-10-31 21:37:00,23.5,16.0,30.30,NW,304,2.0,4.0,74,0.00,,,0.11,weatherlink.com 1.10,2013-11-01 03:37:00,
2013-10-31 21:52:00,22.9,16.0,30.30,NW,321,0.0,4.0,74,0.00,,,0.11,weatherlink.com 1.10,2013-11-01 03:52:00,
2013-10-31 22:07:00,21.4,15.0,30.31,WNW,302,0.0,3.0,76,0.00,,,0.11,weatherlink.com 1.10,2013-11-01 04:07:00,
2013-10-31 22:22:00,21.1,16.0,30.31,ENE,73,0.0,0.0,80,0.00,,,0.11,weatherlink.com 1.10,2013-11-01 04:22:00,
2013-10-31 22:37:00,20.4,15.0,30.32,SW,215,0.0,0.0,81,0.00,,,0.11,weatherlink.com 1.10,2013-11-01 04:37:00,
2013-10-31 22:52:00,20.1,15.0,30.32,NE,41,0.0,0.0,82,0.00,,,0.11,weatherlink.com 1.10,2013-11-01 04:52:00,
2013-10-31 23:07:00,20.4,15.0,30.33,NE,36,1.0,5.0,80,0.00,,,0.11,weatherlink.com 1.10,2013-11-01 05:07:00,
2013-10-31 23:22:00,19.6,15.0,30.33,NNW,340,0.0,1.0,81,0.00,,,0.11,weatherlink.com 1.10,2013-11-01 05:22:00,
2013-10-31 23:37:00,18.3,14.0,30.33,North,359,0.0,2.0,83,0.00,,,0.11,weatherlink.com 1.10,2013-11-01 05:37:00,
2013-10-31 23:52:00,18.8,15.0,30.32,NNW,340,3.0,5.0,84,0.00,,,0.11,weatherlink.com 1.10,2013-11-01 05:52:00,